createdAt,value
2019-02-07T00:00:23.085Z,-3.10
2019-02-07T00:02:51.953Z,-3.10
2019-02-07T00:05:21.015Z,-3.20
2019-02-07T00:07:49.832Z,-3.20
2019-02-07T00:10:20.173Z,-3.30
2019-02-07T00:12:49.201Z,-3.30
2019-02-07T00:15:18.376Z,-3.40
2019-02-07T00:17:47.183Z,-3.30
2019-02-07T00:20:20.208Z,-3.30
2019-02-07T00:22:49.077Z,-3.30
2019-02-07T00:25:17.917Z,-3.30
2019-02-07T00:27:46.757Z,-3.30
2019-02-07T00:30:22.681Z,-3.30
2019-02-07T00:32:51.600Z,-3.30
2019-02-07T00:35:20.385Z,-3.30
2019-02-07T00:37:49.121Z,-3.40
2019-02-07T00:40:21.616Z,-3.30
2019-02-07T00:42:50.561Z,-3.30
2019-02-07T00:45:20.433Z,-3.30
2019-02-07T00:47:49.632Z,-3.30
2019-02-07T00:50:19.303Z,-3.20
2019-02-07T00:52:48.193Z,-3.30
2019-02-07T00:55:18.234Z,-3.30
2019-02-07T00:57:47.252Z,-3.30
2019-02-07T01:00:19.021Z,-3.30
2019-02-07T01:02:47.849Z,-3.40
2019-02-07T01:05:17.305Z,-3.40
2019-02-07T01:07:46.018Z,-3.40
2019-02-07T01:10:27.320Z,-3.40
2019-02-07T01:12:56.281Z,-3.40
2019-02-07T01:15:27.198Z,-3.40
2019-02-07T01:17:55.960Z,-3.40
2019-02-07T01:20:25.089Z,-3.40
2019-02-07T01:22:54.261Z,-3.30
2019-02-07T01:25:24.208Z,-3.30
2019-02-07T01:27:53.558Z,-3.40
2019-02-07T01:30:27.244Z,-3.50
2019-02-07T01:32:56.030Z,-3.60
2019-02-07T01:35:24.821Z,-3.60
2019-02-07T01:37:54.089Z,-3.60
2019-02-07T01:40:23.032Z,-3.60
2019-02-07T01:42:52.164Z,-3.70
2019-02-07T01:45:22.881Z,-3.70
2019-02-07T01:47:51.744Z,-3.70
2019-02-07T01:50:23.048Z,-3.70
2019-02-07T01:52:52.261Z,-3.70
2019-02-07T01:55:21.029Z,-3.70
2019-02-07T01:57:49.938Z,-3.70
2019-02-07T02:00:20.075Z,-3.70
2019-02-07T02:02:49.013Z,-3.70
2019-02-07T02:05:19.457Z,-3.70
2019-02-07T02:07:49.493Z,-3.70
2019-02-07T02:10:23.777Z,-3.80
2019-02-07T02:12:52.572Z,-3.70
2019-02-07T02:15:24.961Z,-3.60
2019-02-07T02:17:52.734Z,-3.70
2019-02-07T02:20:24.097Z,-3.70
2019-02-07T02:22:54.376Z,-3.80
2019-02-07T02:25:40.616Z,-3.70
2019-02-07T02:28:09.385Z,-3.70
2019-02-07T02:30:38.196Z,-3.70
2019-02-07T02:33:07.081Z,-3.70
2019-02-07T02:35:35.828Z,-3.70
2019-02-07T02:38:04.597Z,-3.70
2019-02-07T02:40:33.409Z,-3.70
2019-02-07T02:43:02.172Z,-3.70
2019-02-07T02:45:37.573Z,-3.60
2019-02-07T02:48:01.420Z,-3.70
2019-02-07T02:50:30.159Z,-3.80
2019-02-07T02:52:58.929Z,-3.70
2019-02-07T02:55:36.638Z,-3.70
2019-02-07T02:58:05.972Z,-3.70
2019-02-07T03:00:56.243Z,-3.70
2019-02-07T03:03:29.501Z,-3.70
2019-02-07T03:06:14.853Z,-3.70
2019-02-07T03:08:45.258Z,-3.60
2019-02-07T03:11:24.815Z,-3.50
2019-02-07T03:13:55.227Z,-3.50
2019-02-07T03:16:28.320Z,-3.50
2019-02-07T03:18:59.136Z,-3.50
2019-02-07T03:21:45.894Z,-3.40
2019-02-07T03:24:28.342Z,-3.40
2019-02-07T03:27:01.773Z,-3.40
2019-02-07T03:29:48.621Z,-3.50
2019-02-07T03:32:28.375Z,-3.50
2019-02-07T03:35:01.855Z,-3.40
2019-02-07T03:37:38.021Z,-3.40
2019-02-07T03:40:20.485Z,-3.40
2019-02-07T03:42:50.866Z,-3.50
2019-02-07T03:45:32.969Z,-3.50
2019-02-07T03:48:09.616Z,-3.60
2019-02-07T03:50:55.336Z,-3.50
2019-02-07T03:53:42.021Z,-3.50
2019-02-07T03:56:21.245Z,-3.50
2019-02-07T04:01:52.929Z,-3.60
2019-02-07T04:04:23.314Z,-3.60
2019-02-07T04:07:05.737Z,-3.60
2019-02-07T04:09:36.112Z,-3.70
2019-02-07T04:12:23.034Z,-3.60
2019-02-07T04:14:53.407Z,-3.60
2019-02-07T04:17:29.895Z,-3.50
2019-02-07T04:20:06.204Z,-3.50
2019-02-07T04:22:51.977Z,-3.50
2019-02-07T04:25:34.598Z,-3.40
2019-02-07T04:28:05.015Z,-3.40
2019-02-07T04:30:44.204Z,-3.40
2019-02-07T04:33:23.830Z,-3.40
2019-02-07T04:35:54.418Z,-3.50
2019-02-07T04:38:41.009Z,-3.50
2019-02-07T04:41:29.864Z,-3.40
2019-02-07T04:44:09.464Z,-3.40
2019-02-07T04:46:51.784Z,-3.30
2019-02-07T04:49:22.194Z,-3.30
2019-02-07T04:52:09.133Z,-3.50
2019-02-07T04:54:41.980Z,-3.50
2019-02-07T04:57:18.421Z,-3.50
2019-02-07T04:59:51.617Z,-3.50
2019-02-07T05:02:37.378Z,-3.50
2019-02-07T05:05:09.381Z,-3.50
2019-02-07T05:07:56.273Z,-3.50
2019-02-07T05:13:24.684Z,-3.50
2019-02-07T05:16:11.361Z,-3.50
2019-02-07T05:18:44.543Z,-3.50
2019-02-07T05:21:17.804Z,-3.40
2019-02-07T05:23:48.221Z,-3.40
2019-02-07T05:26:18.624Z,-3.40
2019-02-07T05:29:08.297Z,-3.40
2019-02-07T05:31:55.014Z,-3.40
2019-02-07T05:34:41.978Z,-3.40
2019-02-07T05:37:14.794Z,-3.50
2019-02-07T05:39:54.080Z,-3.50
2019-02-07T05:42:41.077Z,-3.50
2019-02-07T05:45:15.788Z,-3.50
2019-02-07T05:47:46.196Z,-3.50
2019-02-07T05:50:28.781Z,-3.60
2019-02-07T05:52:59.149Z,-3.50
2019-02-07T05:55:35.981Z,-3.60
2019-02-07T05:58:09.398Z,-3.70
2019-02-07T06:01:10.453Z,-3.80
2019-02-07T06:03:28.413Z,-3.80
2019-02-07T06:06:04.853Z,-3.80
2019-02-07T06:08:53.329Z,-3.80
2019-02-07T06:11:26.570Z,-3.80
2019-02-07T06:13:56.981Z,-3.80
2019-02-07T06:16:33.676Z,-3.90
2019-02-07T06:19:04.081Z,-4.00
2019-02-07T06:24:47.136Z,-4.10
2019-02-07T06:27:17.941Z,-4.10
2019-02-07T06:29:48.332Z,-4.10
2019-02-07T06:32:21.715Z,-4.10
2019-02-07T06:34:53.476Z,-4.10
2019-02-07T06:37:26.897Z,-4.10
2019-02-07T06:40:13.957Z,-4.00
2019-02-07T06:42:44.378Z,-4.10
2019-02-07T06:45:17.864Z,-4.10
2019-02-07T06:47:51.368Z,-4.10
2019-02-07T06:50:30.961Z,-4.10
2019-02-07T06:53:01.448Z,-4.10
2019-02-07T06:55:43.664Z,-4.00
2019-02-07T06:58:20.620Z,-4.00
2019-02-07T07:00:51.031Z,-4.00
2019-02-07T07:03:21.474Z,-4.00
2019-02-07T07:06:08.356Z,-3.90
2019-02-07T07:08:39.069Z,-3.90
2019-02-07T07:11:09.481Z,-3.80
2019-02-07T07:13:42.857Z,-3.90
2019-02-07T07:16:29.522Z,-3.80
2019-02-07T07:19:05.663Z,-3.80
2019-02-07T07:21:39.104Z,-3.90
2019-02-07T07:24:25.673Z,-3.80
2019-02-07T07:26:59.395Z,-3.70
2019-02-07T07:29:41.583Z,-3.60
2019-02-07T07:32:26.977Z,-3.60
2019-02-07T07:35:03.717Z,-3.60
2019-02-07T07:37:49.396Z,-3.60
2019-02-07T07:40:36.163Z,-3.60
2019-02-07T07:43:23.022Z,-3.50
2019-02-07T07:46:09.588Z,-3.30
2019-02-07T07:48:46.488Z,-3.10
2019-02-07T07:51:33.222Z,-3.00
2019-02-07T07:54:20.554Z,-2.90
2019-02-07T07:56:59.873Z,-2.90
2019-02-07T07:59:30.253Z,-2.80
2019-02-07T08:02:06.717Z,-2.80
2019-02-07T08:04:55.930Z,-2.70
2019-02-07T08:07:29.361Z,-2.80
2019-02-07T08:10:01.020Z,-2.60
2019-02-07T08:12:37.590Z,-2.50
2019-02-07T08:15:11.218Z,-2.50
2019-02-07T08:17:47.814Z,-2.40
2019-02-07T08:20:24.258Z,-2.30
2019-02-07T08:22:57.383Z,-2.20
2019-02-07T08:25:30.965Z,-2.10
2019-02-07T08:28:16.497Z,-1.90
2019-02-07T08:31:03.319Z,-1.90
2019-02-07T08:33:50.030Z,-2.00
2019-02-07T08:36:36.969Z,-1.90
2019-02-07T08:39:10.424Z,-1.80
2019-02-07T08:41:43.321Z,-1.60
2019-02-07T08:44:19.997Z,-1.60
2019-02-07T08:46:50.485Z,-1.40
2019-02-07T08:49:26.487Z,-1.30
2019-02-07T08:52:12.010Z,-1.10
2019-02-07T08:54:48.166Z,-0.90
2019-02-07T08:57:27.581Z,-0.70
2019-02-07T09:00:16.698Z,-0.50
2019-02-07T09:02:56.299Z,-0.40
2019-02-07T09:05:45.192Z,-0.50
2019-02-07T09:08:21.408Z,-0.40
2019-02-07T09:11:08.401Z,-0.40
2019-02-07T09:13:58.432Z,-0.20
2019-02-07T09:16:31.827Z,-0.10
2019-02-07T09:19:07.904Z,-0.10
2019-02-07T09:21:55.276Z,-0.10
2019-02-07T09:24:31.653Z,0.00
2019-02-07T09:27:18.158Z,0.10
2019-02-07T09:30:04.777Z,0.00
2019-02-07T09:32:37.725Z,0.00
2019-02-07T09:35:11.864Z,0.10
2019-02-07T09:37:42.570Z,0.20
2019-02-07T09:40:15.788Z,0.30
2019-02-07T09:42:49.389Z,0.50
2019-02-07T09:45:31.877Z,0.50
2019-02-07T09:48:21.316Z,0.70
2019-02-07T09:50:43.942Z,1.00
2019-02-07T09:53:26.473Z,1.20
2019-02-07T09:56:04.863Z,1.30
2019-02-07T09:58:35.386Z,1.30
2019-02-07T10:01:25.678Z,1.40
2019-02-07T10:04:05.065Z,1.40
2019-02-07T10:06:51.778Z,1.50
2019-02-07T10:09:31.260Z,1.60
2019-02-07T10:12:04.239Z,1.70
2019-02-07T10:14:34.635Z,1.70
2019-02-07T10:17:14.013Z,1.90
2019-02-07T10:19:53.249Z,1.90
2019-02-07T10:22:35.929Z,2.00
2019-02-07T10:25:07.305Z,2.00
2019-02-07T10:27:40.174Z,2.10
2019-02-07T10:30:29.459Z,2.20
2019-02-07T10:32:59.869Z,2.10
2019-02-07T10:35:42.316Z,2.30
2019-02-07T10:38:21.552Z,2.30
2019-02-07T10:40:55.128Z,2.40
2019-02-07T10:43:34.568Z,2.30
2019-02-07T10:46:08.013Z,2.50
2019-02-07T10:48:44.636Z,2.40
2019-02-07T10:51:16.189Z,2.60
2019-02-07T10:53:52.600Z,2.80
2019-02-07T10:56:30.810Z,2.90
2019-02-07T10:59:09.862Z,2.80
2019-02-07T11:01:58.363Z,3.00
2019-02-07T11:04:40.777Z,3.20
2019-02-07T11:07:20.359Z,3.40
2019-02-07T11:09:59.693Z,3.30
2019-02-07T11:12:48.306Z,3.20
2019-02-07T11:15:24.920Z,3.30
2019-02-07T11:18:04.605Z,3.50
2019-02-07T11:20:47.017Z,3.70
2019-02-07T11:23:20.789Z,3.80
2019-02-07T11:26:00.318Z,3.90
2019-02-07T11:28:39.524Z,4.00
2019-02-07T11:31:25.989Z,4.00
2019-02-07T11:33:56.356Z,4.00
2019-02-07T11:36:53.532Z,4.00
2019-02-07T11:39:31.501Z,4.10
2019-02-07T11:42:10.977Z,4.00
2019-02-07T11:44:42.684Z,4.00
2019-02-07T11:47:29.165Z,4.10
2019-02-07T11:50:02.273Z,4.10
2019-02-07T11:52:49.138Z,4.20
2019-02-07T11:55:25.064Z,4.30
2019-02-07T11:58:02.852Z,4.30
2019-02-07T12:00:39.584Z,4.20
2019-02-07T12:03:10.298Z,4.20
2019-02-07T12:05:48.729Z,4.30
2019-02-07T12:08:19.253Z,4.40
2019-02-07T12:10:55.915Z,4.50
2019-02-07T12:13:29.001Z,4.70
2019-02-07T12:16:14.765Z,4.60
2019-02-07T12:18:50.993Z,4.50
2019-02-07T12:21:21.397Z,4.60
2019-02-07T12:24:10.335Z,4.60
2019-02-07T12:26:57.091Z,4.50
2019-02-07T12:29:27.500Z,4.50
2019-02-07T12:32:07.125Z,4.50
2019-02-07T12:34:40.703Z,4.40
2019-02-07T12:37:14.189Z,4.30
2019-02-07T12:40:01.266Z,4.30
2019-02-07T12:42:48.155Z,4.30
2019-02-07T12:45:18.569Z,4.20
2019-02-07T12:47:54.945Z,4.30
2019-02-07T12:50:44.081Z,4.30
2019-02-07T12:53:30.590Z,4.40
2019-02-07T12:56:03.548Z,4.40
2019-02-07T12:58:40.803Z,4.50
2019-02-07T13:01:13.697Z,4.40
2019-02-07T13:04:00.763Z,4.40
2019-02-07T13:06:37.505Z,4.40
2019-02-07T13:09:27.086Z,4.30
2019-02-07T13:12:00.227Z,4.40
2019-02-07T13:14:31.002Z,4.10
2019-02-07T13:17:01.383Z,4.20
2019-02-07T13:19:40.240Z,4.30
2019-02-07T13:22:20.370Z,4.40
2019-02-07T13:24:50.773Z,4.40
2019-02-07T13:27:27.273Z,4.50
2019-02-07T13:30:00.668Z,4.60
2019-02-07T13:32:33.801Z,4.70
2019-02-07T13:35:19.976Z,4.70
2019-02-07T13:37:50.381Z,4.70
2019-02-07T13:40:33.063Z,4.70
2019-02-07T13:43:12.518Z,4.80
2019-02-07T13:45:51.733Z,4.70
2019-02-07T13:48:30.897Z,4.70
2019-02-07T13:51:03.778Z,4.60
2019-02-07T13:53:36.909Z,4.50
2019-02-07T13:56:07.725Z,4.40
2019-02-07T13:58:56.315Z,4.40
2019-02-07T14:01:26.997Z,4.40
2019-02-07T14:04:03.283Z,4.40
2019-02-07T14:06:33.709Z,4.30
2019-02-07T14:09:04.088Z,4.30
2019-02-07T14:11:40.513Z,4.30
2019-02-07T14:14:26.241Z,4.30
2019-02-07T14:16:56.629Z,4.10
2019-02-07T14:19:42.321Z,4.10
2019-02-07T14:22:21.977Z,4.00
2019-02-07T14:24:52.399Z,4.00
2019-02-07T14:27:28.580Z,3.90
2019-02-07T14:30:01.979Z,3.90
2019-02-07T14:32:50.852Z,3.80
2019-02-07T14:35:27.658Z,3.80
2019-02-07T14:38:01.117Z,3.80
2019-02-07T14:40:48.180Z,4.00
2019-02-07T14:43:18.561Z,3.70
2019-02-07T14:45:49.156Z,3.70
2019-02-07T14:48:22.332Z,3.70
2019-02-07T14:50:51.608Z,3.60
2019-02-07T14:53:20.381Z,3.50
2019-02-07T14:55:49.113Z,3.40
2019-02-07T14:58:18.697Z,3.40
2019-02-07T15:00:48.032Z,3.30
2019-02-07T15:03:16.848Z,3.10
2019-02-07T15:05:45.890Z,3.10
2019-02-07T15:08:14.653Z,3.10
2019-02-07T15:10:43.386Z,3.00
2019-02-07T15:13:12.352Z,3.00
2019-02-07T15:15:41.169Z,2.90
2019-02-07T15:18:10.718Z,3.00
2019-02-07T15:20:40.226Z,2.90
2019-02-07T15:23:09.037Z,2.90
2019-02-07T15:25:38.163Z,2.80
2019-02-07T15:28:07.466Z,2.80
2019-02-07T15:30:36.392Z,2.80
2019-02-07T15:33:05.325Z,2.70
2019-02-07T15:35:37.124Z,2.70
2019-02-07T15:38:07.637Z,2.70
2019-02-07T15:40:38.049Z,2.70
2019-02-07T15:43:06.885Z,2.70
2019-02-07T15:45:37.133Z,2.70
2019-02-07T15:48:06.225Z,2.60
2019-02-07T15:50:38.306Z,2.60
2019-02-07T15:53:06.766Z,2.60
2019-02-07T15:55:35.535Z,2.60
2019-02-07T15:58:04.640Z,2.60
2019-02-07T16:00:43.947Z,2.60
2019-02-07T16:03:27.310Z,2.60
2019-02-07T16:05:56.053Z,2.60
2019-02-07T16:08:24.858Z,2.80
2019-02-07T16:10:53.725Z,2.90
2019-02-07T16:13:22.920Z,3.20
2019-02-07T16:15:52.367Z,3.10
2019-02-07T16:18:21.499Z,3.10
2019-02-07T16:20:50.513Z,3.10
2019-02-07T16:23:19.300Z,3.10
2019-02-07T16:25:48.300Z,3.10
2019-02-07T16:28:17.041Z,3.10
2019-02-07T16:30:47.224Z,3.30
2019-02-07T16:33:16.269Z,3.30
2019-02-07T16:35:45.195Z,3.30
2019-02-07T16:38:13.957Z,3.40
2019-02-07T16:40:42.885Z,3.40
2019-02-07T16:43:11.813Z,3.40
2019-02-07T16:45:40.850Z,3.50
2019-02-07T16:48:09.609Z,3.50
2019-02-07T16:50:38.437Z,3.50
2019-02-07T16:53:07.311Z,3.40
2019-02-07T16:55:36.121Z,3.50
2019-02-07T16:58:05.684Z,3.50
2019-02-07T17:00:37.493Z,3.50
2019-02-07T17:03:07.217Z,3.50
2019-02-07T17:05:37.910Z,3.40
2019-02-07T17:08:07.065Z,3.40
2019-02-07T17:10:40.629Z,3.40
2019-02-07T17:13:11.265Z,3.50
2019-02-07T17:15:40.330Z,3.40
2019-02-07T17:18:09.133Z,3.40
2019-02-07T17:20:38.161Z,3.40
2019-02-07T17:23:07.092Z,3.40
2019-02-07T17:25:36.158Z,3.60
2019-02-07T17:28:05.208Z,3.60
2019-02-07T17:30:34.276Z,3.60
2019-02-07T17:33:03.111Z,3.60
2019-02-07T17:35:31.862Z,3.70
2019-02-07T17:38:00.596Z,3.70
2019-02-07T17:40:30.810Z,3.70
2019-02-07T17:42:59.582Z,3.70
2019-02-07T17:45:30.061Z,3.70
2019-02-07T17:47:58.789Z,3.70
2019-02-07T17:50:37.973Z,3.70
2019-02-07T17:53:08.873Z,3.60
2019-02-07T17:55:37.646Z,3.60
2019-02-07T17:58:07.367Z,3.70
2019-02-07T18:01:01.452Z,3.70
2019-02-07T18:03:30.249Z,3.60
2019-02-07T18:05:59.079Z,3.50
2019-02-07T18:08:28.987Z,3.40
2019-02-07T18:10:57.745Z,3.30
2019-02-07T18:13:26.686Z,3.30
2019-02-07T18:15:57.369Z,3.30
2019-02-07T18:18:25.961Z,3.20
2019-02-07T18:20:54.716Z,3.20
2019-02-07T18:23:23.481Z,3.20
2019-02-07T18:25:52.333Z,3.20
2019-02-07T18:28:21.160Z,3.10
2019-02-07T18:30:56.412Z,3.20
2019-02-07T18:33:28.941Z,3.20
2019-02-07T18:36:09.758Z,3.20
2019-02-07T18:38:40.286Z,3.20
2019-02-07T18:44:02.840Z,3.20
2019-02-07T18:46:32.351Z,3.20
2019-02-07T18:49:18.136Z,3.30
2019-02-07T18:52:09.087Z,3.20
2019-02-07T18:54:44.502Z,3.20
2019-02-07T18:57:21.178Z,3.20
2019-02-07T18:59:53.129Z,3.20
2019-02-07T19:05:17.468Z,3.10
2019-02-07T19:07:46.302Z,3.20
2019-02-07T19:10:18.030Z,3.20
2019-02-07T19:12:46.938Z,3.10
2019-02-07T19:15:21.733Z,3.10
2019-02-07T19:17:50.562Z,3.10
2019-02-07T19:20:19.908Z,3.10
2019-02-07T19:22:48.702Z,3.00
2019-02-07T19:25:17.830Z,3.00
2019-02-07T19:27:46.581Z,3.00
2019-02-07T19:30:23.773Z,3.00
2019-02-07T19:32:52.505Z,3.10
2019-02-07T19:35:21.270Z,3.10
2019-02-07T19:37:50.185Z,3.00
2019-02-07T19:40:20.405Z,3.00
2019-02-07T19:42:49.157Z,3.00
2019-02-07T19:45:24.197Z,2.90
2019-02-07T19:47:52.953Z,3.00
2019-02-07T19:50:28.946Z,3.00
2019-02-07T19:52:59.261Z,3.00
2019-02-07T19:55:29.951Z,3.00
2019-02-07T19:57:58.786Z,3.00
2019-02-07T20:00:32.289Z,3.00
2019-02-07T20:03:01.390Z,3.00
2019-02-07T20:05:30.145Z,2.90
2019-02-07T20:07:58.997Z,3.00
2019-02-07T20:10:31.242Z,3.00
2019-02-07T20:13:00.357Z,3.00
2019-02-07T20:15:40.874Z,3.00
2019-02-07T20:18:10.490Z,3.00
2019-02-07T20:20:39.921Z,3.00
2019-02-07T20:23:08.725Z,3.00
2019-02-07T20:25:37.855Z,3.00
2019-02-07T20:28:06.758Z,3.00
2019-02-07T20:30:37.881Z,3.00
2019-02-07T20:33:07.409Z,2.90
2019-02-07T20:35:36.195Z,2.90
2019-02-07T20:38:05.804Z,3.00
2019-02-07T20:40:34.674Z,3.00
2019-02-07T20:43:03.801Z,2.90
2019-02-07T20:45:35.225Z,3.00
2019-02-07T20:48:04.270Z,3.00
2019-02-07T20:50:33.047Z,3.00
2019-02-07T20:53:01.845Z,3.00
2019-02-07T20:55:30.611Z,3.00
2019-02-07T20:57:59.341Z,3.00
2019-02-07T21:00:30.609Z,3.00
2019-02-07T21:02:59.708Z,3.00
2019-02-07T21:05:30.169Z,3.00
2019-02-07T21:07:59.122Z,3.00
2019-02-07T21:10:32.862Z,3.00
2019-02-07T21:13:01.828Z,3.00
2019-02-07T21:15:30.657Z,3.00
2019-02-07T21:17:59.419Z,3.00
2019-02-07T21:20:29.941Z,3.00
2019-02-07T21:22:59.812Z,2.90
2019-02-07T21:25:34.577Z,3.00
2019-02-07T21:28:03.370Z,3.00
2019-02-07T21:30:33.270Z,2.90
2019-02-07T21:33:02.031Z,3.00
2019-02-07T21:35:30.865Z,3.00
2019-02-07T21:37:59.633Z,3.00
2019-02-07T21:40:32.246Z,2.90
2019-02-07T21:43:01.290Z,2.90
2019-02-07T21:45:30.633Z,2.90
2019-02-07T21:48:00.228Z,2.90
2019-02-07T21:50:31.440Z,3.00
2019-02-07T21:53:00.594Z,2.90
2019-02-07T21:55:31.026Z,2.90
2019-02-07T21:57:59.788Z,2.90
2019-02-07T22:00:40.126Z,2.90
2019-02-07T22:03:10.481Z,2.90
2019-02-07T22:05:39.451Z,2.90
2019-02-07T22:08:08.777Z,2.90
2019-02-07T22:10:37.741Z,2.90
2019-02-07T22:13:06.969Z,2.90
2019-02-07T22:15:35.740Z,2.80
2019-02-07T22:18:05.481Z,2.90
2019-02-07T22:20:34.310Z,2.80
2019-02-07T22:23:03.049Z,2.90
2019-02-07T22:25:31.873Z,2.80
2019-02-07T22:28:00.611Z,2.90
2019-02-07T22:30:32.540Z,2.90
2019-02-07T22:33:01.473Z,2.90
2019-02-07T22:35:30.631Z,2.90
2019-02-07T22:37:59.573Z,2.90
2019-02-07T22:40:28.325Z,2.90
2019-02-07T22:42:57.460Z,2.80
2019-02-07T22:45:26.993Z,2.80
2019-02-07T22:47:55.712Z,2.80
2019-02-07T22:50:29.502Z,2.90
2019-02-07T22:52:59.624Z,2.80
2019-02-07T22:55:28.473Z,2.90
2019-02-07T22:57:57.341Z,3.00
2019-02-07T23:00:43.018Z,2.90
2019-02-07T23:03:19.381Z,2.90
2019-02-07T23:05:48.117Z,2.80
2019-02-07T23:08:17.043Z,2.80
2019-02-07T23:10:46.372Z,2.80
2019-02-07T23:13:15.192Z,2.80
2019-02-07T23:15:44.029Z,2.90
2019-02-07T23:18:12.889Z,2.90
2019-02-07T23:20:41.664Z,2.80
2019-02-07T23:23:11.821Z,2.70
2019-02-07T23:25:41.148Z,2.70
2019-02-07T23:28:10.276Z,2.70
2019-02-07T23:30:39.312Z,2.60
2019-02-07T23:33:08.146Z,2.60
2019-02-07T23:35:36.904Z,2.60
2019-02-07T23:38:05.834Z,2.60
2019-02-07T23:40:34.584Z,2.70
2019-02-07T23:43:03.517Z,2.70
2019-02-07T23:45:32.361Z,2.70
2019-02-07T23:48:01.193Z,2.60
2019-02-07T23:50:29.940Z,2.60
2019-02-07T23:52:58.719Z,2.60
2019-02-07T23:55:27.473Z,2.60
2019-02-07T23:57:56.614Z,2.50
